Flight Track Log - Related Links

Times and Time Zones

All times are in EDT time to prevent confusion due to time zone crossing. See the SWA378 flight status page for this flight to view local times or setup timezone preferences in your user account.

Time Position Orientation Groundspeed Altitude Reporting Facility
EDT Latitude Longitude Course Direction KTS MPH feet Rate Location/Type
Mon 10:27:18 PM 39.1156 -76.6056 284° West 171 197 4,100  Level Washington Center
Mon 10:28:16 PM 39.0764 -76.5300 124° Southeast 212 244 7,600 3,356 Climbing Washington Center
Mon 10:29:16 PM 39.0689 -76.4392 96° East 231 266 10,700 3,100 Climbing Washington Center
Mon 10:30:16 PM 39.1111 -76.3300 63° Northeast 245 282 13,800 2,976 Climbing Washington Center
Mon 10:31:19 PM 39.1494 -76.2097 68° East 301 346 16,800 2,876 Climbing Washington Center
Mon 10:32:00 PM 39.1622 -76.6111 284° West  Level FlightAware
Mon 10:32:17 PM 39.1708 -76.0736 79° East 346 398 19,600  Level Washington Center
Mon 10:33:17 PM 39.1881 -75.9344 81° East 376 433 22,000 1,200 Climbing Washington Center
Mon 10:34:17 PM 39.2444 -75.8114 59° Northeast 385 443 22,000  Level Washington Center
Mon 10:35:18 PM 39.3217 -75.7097 46° Northeast 380 437 22,000 248 Level Washington Center
Mon 10:36:18 PM 39.3989 -75.6103 45° Northeast 385 443 22,500 1,462 Climbing Washington Center
Mon 10:37:17 PM 39.4822 -75.5081 43° Northeast 391 450 24,900 2,600 Climbing Washington Center
Mon 10:38:18 PM 39.5614 -75.4031 46° Northeast 401 461 27,700 2,033 Climbing Washington Center
Mon 10:39:18 PM 39.6403 -75.2978 46° Northeast 406 467 29,000 729 Climbing Washington Center
Mon 10:40:05 PM 39.7025 -75.2150 46° Northeast 405 466 29,000  Level New Center
Mon 10:41:05 PM 39.7775 -75.1036 49° Northeast 410 472 29,000  Level New Center
Mon 10:42:05 PM 39.8656 -74.9792 47° Northeast 419 482 29,000  Level New Center
Mon 10:43:04 PM 39.9336 -74.8831 47° Northeast 413 475 29,000  Level New Center
Mon 10:44:04 PM 40.0161 -74.7850 42° Northeast 403 464 29,000  Level New Center
Mon 10:45:05 PM 40.1094 -74.6764 42° Northeast 403 464 29,000  Level New Center
Mon 10:46:06 PM 40.1875 -74.5856 42° Northeast 403 464 29,000  Level New Center
Mon 10:47:04 PM 40.2828 -74.4711 42° Northeast 410 472 29,000 -350 Level New Center
Mon 10:48:06 PM 40.3669 -74.3722 42° Northeast 410 472 28,300 -857 Descending New Center
Mon 10:50:13 PM 40.5386 -74.1658 42° Northeast 422 486 26,300 -963 Descending Boston Center
Mon 10:51:13 PM 40.6214 -74.0642 43° Northeast 417 480 25,300 -1,000 Descending Boston Center
Mon 10:52:13 PM 40.7061 -73.9678 41° Northeast 411 473 24,300 -650 Descending Boston Center
Mon 10:53:13 PM 40.7886 -73.8683 42° Northeast 406 467 24,000 -350 Descending Boston Center
Mon 10:54:13 PM 40.8733 -73.7714 41° Northeast 401 461 23,600 -500 Descending Boston Center
Mon 10:55:13 PM 40.9742 -73.7075 26° Northeast 395 455 23,000 -300 Descending Boston Center
Mon 10:56:13 PM 41.0786 -73.6847 North 389 448 23,000 -250 Level Boston Center
Mon 10:57:13 PM 41.1889 -73.6894 358° North 381 438 22,500 -750 Descending Boston Center
Mon 10:58:13 PM 41.2972 -73.6972 357° North 386 444 21,500 -1,000 Descending Boston Center
Mon 10:59:13 PM 41.4033 -73.7075 356° North 386 444 20,500 -750 Descending Boston Center
Mon 11:00:13 PM 41.5053 -73.7125 358° North 381 438 20,000 -250 Descending Boston Center
Mon 11:01:13 PM 41.6075 -73.7200 357° North 370 426 20,000 -100 Level Boston Center
Mon 11:02:13 PM 41.7094 -73.7303 356° North 364 419 19,800 -1,000 Descending Boston Center
Mon 11:03:13 PM 41.8156 -73.7353 358° North 346 398 18,000 -1,700 Descending Boston Center
Mon 11:04:13 PM 41.9031 -73.7428 356° North 346 398 16,400 -1,800 Descending Boston Center
Mon 11:04:53 PM 41.9739 -73.7497 356° North 342 394 15,000 -2,200 Descending Boston Center
Mon 11:05:13 PM 42.0072 -73.7506 359° North 346 398 14,200 -2,175 Descending Boston Center
Mon 11:06:13 PM 42.1031 -73.7553 358° North 346 398 12,100 -1,794 Descending Boston Center
Mon 11:07:00 PM 42.1756 -73.7933 339° North 343 395 11,000 -1,167 Descending Boston Center
Mon 11:08:01 PM 42.2628 -73.8231 346° North 314 361 10,000 -885 Descending Boston Center
Mon 11:09:02 PM 42.3439 -73.8250 359° North 282 325 9,200 -893 Descending Boston Center
Mon 11:10:02 PM 42.4208 -73.8406 352° North 284 327 8,200 -992 Descending Boston Center
Mon 11:11:03 PM 42.5000 -73.8594 350° North 285 328 7,200 -1,240 Descending Boston Center
Mon 11:12:03 PM 42.5706 -73.8750 351° North 258 297 5,700 -1,339 Descending Boston Center
Mon 11:13:04 PM 42.6350 -73.8878 352° North 236 272 4,500 -1,082 Descending Boston Center
Mon 11:14:05 PM 42.6975 -73.9006 351° North 218 251 3,500 -496 Descending Boston Center
Mon 11:15:05 PM 42.7536 -73.9103 353° North 190 219 3,500  Level Boston Center
Mon 11:16:06 PM 42.8078 -73.9144 357° North 191 220 3,500 -397 Level Boston Center
Mon 11:17:06 PM 42.8519 -73.8789 31° Northeast 183 211 2,700 -793 Descending Boston Center
Mon 11:18:07 PM 42.8442 -73.8275 102° East 130 150 1,900 -689 Descending Boston Center
Mon 11:19:08 PM 42.8089 -73.8100 160° South 114 131 1,300 -595 Descending Boston Center
Mon 11:20:08 PM 42.7736 -73.8064 176° South 124 143 700 -600 Descending Boston Center

Login

Don't have an account? Register now (free) for customized features, flight alerts, and more!